createdAt,value
2018-06-09T00:00:59.197Z,21.60
2018-06-09T00:05:55.102Z,21.70
2018-06-09T00:08:23.186Z,21.70
2018-06-09T00:10:51.218Z,21.70
2018-06-09T00:15:47.133Z,21.80
2018-06-09T00:18:15.189Z,21.80
2018-06-09T00:20:43.229Z,21.80
2018-06-09T00:23:11.299Z,21.80
2018-06-09T00:25:39.349Z,21.80
2018-06-09T00:30:35.390Z,21.70
2018-06-09T00:37:59.649Z,21.60
2018-06-09T00:40:27.706Z,21.50
2018-06-09T00:42:56.065Z,21.50
2018-06-09T00:45:24.131Z,21.50
2018-06-09T00:47:52.205Z,21.40
2018-06-09T00:50:20.280Z,21.40
2018-06-09T00:57:44.052Z,21.50
2018-06-09T01:00:12.105Z,21.50
2018-06-09T01:02:40.161Z,21.50
2018-06-09T01:07:36.102Z,21.40
2018-06-09T01:12:31.994Z,21.40
2018-06-09T01:15:00.052Z,21.50
2018-06-09T01:17:28.106Z,21.40
2018-06-09T01:19:56.236Z,21.40
2018-06-09T01:22:24.273Z,21.50
2018-06-09T01:24:52.855Z,21.40
2018-06-09T01:27:20.933Z,21.40
2018-06-09T01:29:49.020Z,21.50
2018-06-09T01:34:45.139Z,21.70
2018-06-09T01:37:13.222Z,21.70
2018-06-09T01:39:41.266Z,21.80
2018-06-09T01:42:09.337Z,21.80
2018-06-09T01:44:37.421Z,21.70
2018-06-09T01:47:05.616Z,21.70
2018-06-09T01:52:01.493Z,21.60
2018-06-09T01:54:29.555Z,21.60
2018-06-09T01:56:57.625Z,21.60
2018-06-09T01:59:25.664Z,21.70
2018-06-09T02:01:53.763Z,21.70
2018-06-09T02:04:21.798Z,21.50
2018-06-09T02:06:50.093Z,21.50
2018-06-09T02:11:46.006Z,21.50
2018-06-09T02:14:14.414Z,21.50
2018-06-09T02:16:42.466Z,21.50
2018-06-09T02:19:10.509Z,21.50
2018-06-09T02:21:38.587Z,21.50
2018-06-09T02:24:06.617Z,21.50
2018-06-09T02:29:02.715Z,21.40
2018-06-09T02:33:59.352Z,21.20
2018-06-09T02:38:55.312Z,21.20
2018-06-09T02:41:23.402Z,21.30
2018-06-09T02:43:51.442Z,21.30
2018-06-09T02:46:19.708Z,21.40
2018-06-09T02:48:47.954Z,21.30
2018-06-09T02:51:15.997Z,21.30
2018-06-09T02:53:44.049Z,21.30
2018-06-09T02:56:12.118Z,21.30
2018-06-09T02:58:40.202Z,21.10
2018-06-09T03:01:08.345Z,21.10
2018-06-09T03:03:37.002Z,21.20
2018-06-09T03:06:05.052Z,21.20
2018-06-09T03:08:33.110Z,21.10
2018-06-09T03:11:01.153Z,21.10
2018-06-09T03:13:29.218Z,21.10
2018-06-09T03:15:57.946Z,21.20
2018-06-09T03:20:54.065Z,21.10
2018-06-09T03:23:22.133Z,21.10
2018-06-09T03:25:50.178Z,21.10
2018-06-09T03:33:13.922Z,21.50
2018-06-09T03:38:09.922Z,21.40
2018-06-09T03:40:37.967Z,21.20
2018-06-09T03:43:06.065Z,21.20
2018-06-09T03:48:02.022Z,21.00
2018-06-09T03:55:26.121Z,20.90
2018-06-09T03:57:54.219Z,21.00
2018-06-09T04:00:22.257Z,20.90
2018-06-09T04:02:50.350Z,20.90
2018-06-09T04:05:18.393Z,20.90
2018-06-09T04:07:46.501Z,20.70
2018-06-09T04:10:14.569Z,20.90
2018-06-09T04:12:42.603Z,21.00
2018-06-09T04:15:10.668Z,21.00
2018-06-09T04:17:38.708Z,20.90
2018-06-09T04:20:06.770Z,20.80
2018-06-09T04:22:34.822Z,20.90
2018-06-09T04:25:02.882Z,21.00
2018-06-09T04:27:31.102Z,20.90
2018-06-09T04:34:55.262Z,21.00
2018-06-09T04:37:23.510Z,21.00
2018-06-09T04:39:51.590Z,21.00
2018-06-09T04:42:19.608Z,21.00
2018-06-09T04:44:47.654Z,20.90
2018-06-09T04:47:15.722Z,21.00
2018-06-09T04:49:43.776Z,20.90
2018-06-09T04:52:11.846Z,20.90
2018-06-09T04:54:39.887Z,21.00
2018-06-09T04:57:07.949Z,21.00
2018-06-09T04:59:36.007Z,21.10
2018-06-09T05:04:32.106Z,21.10
2018-06-09T05:07:00.179Z,21.10
2018-06-09T05:14:24.181Z,20.90
2018-06-09T05:16:52.262Z,20.90
2018-06-09T05:26:44.210Z,21.00
2018-06-09T05:29:12.293Z,21.10
2018-06-09T05:31:40.354Z,21.00
2018-06-09T05:34:08.398Z,21.10
2018-06-09T05:36:36.433Z,21.20
2018-06-09T05:39:07.894Z,21.10
2018-06-09T05:41:36.041Z,21.00
2018-06-09T05:44:04.201Z,21.00
2018-06-09T05:46:32.259Z,21.00
2018-06-09T05:51:28.230Z,21.10
2018-06-09T05:53:56.306Z,21.10
2018-06-09T05:56:24.377Z,21.10
2018-06-09T05:58:52.416Z,21.10
2018-06-09T06:01:20.459Z,21.00
2018-06-09T06:06:16.710Z,21.10
2018-06-09T06:08:44.837Z,21.20
2018-06-09T06:11:12.894Z,21.20
2018-06-09T06:13:40.969Z,21.20
2018-06-09T06:16:09.038Z,21.30
2018-06-09T06:18:37.101Z,21.30
2018-06-09T06:21:05.153Z,21.30
2018-06-09T06:23:33.241Z,21.20
2018-06-09T06:26:01.302Z,21.20
2018-06-09T06:28:29.363Z,21.20
2018-06-09T06:33:25.278Z,21.20
2018-06-09T06:35:53.325Z,21.10
2018-06-09T06:40:49.333Z,21.00
2018-06-09T06:43:17.404Z,20.90
2018-06-09T06:45:45.450Z,20.80
2018-06-09T06:53:09.365Z,21.00
2018-06-09T06:55:37.425Z,21.10
2018-06-09T06:58:05.605Z,21.00
2018-06-09T07:00:33.673Z,21.00
2018-06-09T07:05:30.893Z,20.90
2018-06-09T07:10:26.805Z,20.80
2018-06-09T07:12:54.849Z,21.00
2018-06-09T07:15:22.914Z,21.00
2018-06-09T07:17:50.974Z,21.10
2018-06-09T07:20:19.926Z,21.00
2018-06-09T07:22:48.123Z,20.90
2018-06-09T07:25:16.285Z,20.80
2018-06-09T07:27:44.473Z,20.80
2018-06-09T07:32:40.490Z,20.90
2018-06-09T07:40:04.718Z,21.00
2018-06-09T07:42:32.927Z,21.00
2018-06-09T07:47:29.046Z,21.20
2018-06-09T07:49:57.312Z,21.20
2018-06-09T07:52:25.570Z,21.30
2018-06-09T07:57:22.576Z,21.50
2018-06-09T07:59:50.787Z,21.40
2018-06-09T08:09:42.962Z,21.70
2018-06-09T08:19:36.509Z,22.00
2018-06-09T08:22:04.700Z,21.70
2018-06-09T08:27:01.664Z,21.70
2018-06-09T08:29:29.865Z,21.50
2018-06-09T08:31:58.150Z,21.50
2018-06-09T08:34:26.406Z,21.60
2018-06-09T08:41:50.539Z,21.90
2018-06-09T08:44:18.801Z,22.10
2018-06-09T08:46:47.005Z,22.20
2018-06-09T08:49:15.218Z,22.40
2018-06-09T08:54:11.437Z,22.70
2018-06-09T08:59:07.710Z,23.00
2018-06-09T09:04:09.333Z,23.00
2018-06-09T09:06:37.398Z,23.30
2018-06-09T09:09:08.115Z,23.30
2018-06-09T09:11:36.350Z,23.40
2018-06-09T09:14:04.407Z,23.40
2018-06-09T09:16:32.525Z,23.50
2018-06-09T09:19:00.513Z,23.60
2018-06-09T09:21:28.574Z,23.50
2018-06-09T09:23:56.623Z,23.70
2018-06-09T09:26:24.698Z,23.70
2018-06-09T09:28:52.745Z,23.70
2018-06-09T09:36:16.623Z,24.10
2018-06-09T09:38:44.681Z,24.30
2018-06-09T09:41:12.920Z,24.30
2018-06-09T09:43:40.986Z,24.40
2018-06-09T09:46:09.146Z,24.40
2018-06-09T09:48:37.202Z,24.50
2018-06-09T09:51:05.398Z,24.70
2018-06-09T09:53:33.469Z,24.70
2018-06-09T09:56:02.532Z,24.80
2018-06-09T09:58:30.585Z,24.60
2018-06-09T10:00:58.642Z,24.70
2018-06-09T10:03:26.702Z,24.70
2018-06-09T10:05:54.814Z,24.70
2018-06-09T10:08:22.922Z,25.00
2018-06-09T10:10:51.028Z,25.10
2018-06-09T10:13:19.082Z,25.30
2018-06-09T10:15:47.135Z,25.60
2018-06-09T10:18:15.308Z,25.60
2018-06-09T10:20:43.754Z,25.80
2018-06-09T10:23:11.810Z,25.80
2018-06-09T10:25:39.937Z,25.80
2018-06-09T10:28:07.966Z,25.90
2018-06-09T10:30:36.027Z,26.10
2018-06-09T10:33:04.116Z,25.90
2018-06-09T10:38:00.051Z,26.00
2018-06-09T10:40:28.156Z,26.00
2018-06-09T10:42:56.201Z,26.00
2018-06-09T10:47:52.181Z,26.10
2018-06-09T10:50:20.250Z,26.10
2018-06-09T10:52:48.292Z,26.10
2018-06-09T10:55:16.367Z,26.10
2018-06-09T10:57:44.554Z,26.20
2018-06-09T11:00:12.813Z,26.20
2018-06-09T11:02:40.882Z,26.20
2018-06-09T11:05:08.925Z,26.20
2018-06-09T11:07:36.985Z,26.20
2018-06-09T11:10:05.086Z,26.30
2018-06-09T11:12:33.097Z,26.30
2018-06-09T11:15:02.537Z,26.40
2018-06-09T11:19:58.598Z,26.80
2018-06-09T11:22:26.668Z,26.90
2018-06-09T11:24:54.737Z,26.90
2018-06-09T11:27:24.578Z,26.90
2018-06-09T11:29:52.626Z,27.00
2018-06-09T11:32:20.678Z,27.20
2018-06-09T11:34:48.845Z,27.20
2018-06-09T11:37:16.894Z,27.10
2018-06-09T11:39:45.071Z,27.10
2018-06-09T11:42:13.198Z,27.30
2018-06-09T11:44:41.651Z,27.30
2018-06-09T11:47:09.712Z,27.20
2018-06-09T11:49:37.745Z,27.20
2018-06-09T11:52:06.021Z,27.10
2018-06-09T11:54:34.106Z,27.20
2018-06-09T11:57:02.266Z,27.20
2018-06-09T11:59:31.409Z,27.20
2018-06-09T12:02:01.324Z,27.40
2018-06-09T12:04:29.403Z,27.50
2018-06-09T12:06:57.445Z,27.60
2018-06-09T12:09:25.570Z,27.60
2018-06-09T12:11:54.723Z,27.70
2018-06-09T12:14:22.783Z,27.70
2018-06-09T12:16:50.857Z,27.70
2018-06-09T12:19:19.370Z,27.60
2018-06-09T12:21:48.378Z,27.60
2018-06-09T12:24:16.430Z,27.60
2018-06-09T12:26:44.527Z,27.50
2018-06-09T12:29:12.594Z,27.20
2018-06-09T12:31:40.650Z,27.30
2018-06-09T12:34:08.767Z,27.40
2018-06-09T12:36:36.821Z,27.50
2018-06-09T12:39:06.909Z,27.50
2018-06-09T12:41:35.006Z,27.90
2018-06-09T12:44:03.061Z,27.80
2018-06-09T12:46:31.113Z,27.80
2018-06-09T12:48:59.193Z,27.60
2018-06-09T12:51:27.249Z,27.80
2018-06-09T12:53:55.349Z,27.80
2018-06-09T12:56:23.398Z,28.00
2018-06-09T12:58:51.497Z,28.00
2018-06-09T13:01:19.554Z,28.00
2018-06-09T13:03:47.617Z,30.30
2018-06-09T13:06:15.669Z,27.90
2018-06-09T13:08:43.750Z,28.10
2018-06-09T13:11:11.792Z,28.50
2018-06-09T13:13:39.881Z,28.50
2018-06-09T13:16:07.970Z,28.70
2018-06-09T13:21:03.909Z,28.90
2018-06-09T13:23:31.949Z,28.80
2018-06-09T13:26:00.011Z,28.60
2018-06-09T13:28:28.098Z,28.60
2018-06-09T13:30:56.154Z,28.70
2018-06-09T13:33:24.216Z,28.50
2018-06-09T13:35:52.293Z,28.70
2018-06-09T13:38:20.309Z,28.70
2018-06-09T13:40:48.349Z,28.60
2018-06-09T13:43:16.423Z,28.60
2018-06-09T13:45:44.460Z,28.50
2018-06-09T13:48:12.545Z,28.60
2018-06-09T13:50:40.639Z,28.80
2018-06-09T13:53:08.697Z,28.90
2018-06-09T13:55:36.757Z,28.90
2018-06-09T13:58:05.458Z,28.80
2018-06-09T14:00:33.515Z,28.90
2018-06-09T14:03:01.553Z,28.80
2018-06-09T14:05:29.618Z,28.70
2018-06-09T14:07:57.658Z,28.70
2018-06-09T14:13:00.177Z,28.80
2018-06-09T14:15:28.273Z,28.50
2018-06-09T14:17:56.455Z,28.50
2018-06-09T14:20:24.695Z,28.20
2018-06-09T14:22:52.894Z,28.40
2018-06-09T14:25:21.153Z,28.30
2018-06-09T14:27:49.330Z,28.50
2018-06-09T14:30:17.553Z,28.80
2018-06-09T14:32:45.782Z,28.80
2018-06-09T14:35:13.921Z,28.80
2018-06-09T14:37:42.172Z,28.70
2018-06-09T14:40:10.409Z,29.10
2018-06-09T14:42:38.600Z,29.00
2018-06-09T14:45:06.885Z,29.30
2018-06-09T14:47:35.184Z,29.10
2018-06-09T14:50:03.346Z,29.20
2018-06-09T14:52:31.585Z,29.10
2018-06-09T14:54:59.740Z,29.60
2018-06-09T14:57:28.077Z,29.50
2018-06-09T14:59:56.304Z,29.50
2018-06-09T15:02:24.521Z,29.70
2018-06-09T15:04:52.651Z,29.80
2018-06-09T15:07:20.810Z,30.00
2018-06-09T15:09:49.073Z,29.60
2018-06-09T15:12:17.261Z,29.30
2018-06-09T15:14:45.478Z,29.50
2018-06-09T15:17:13.666Z,29.80
2018-06-09T15:19:41.808Z,29.70
2018-06-09T15:22:10.075Z,29.60
2018-06-09T15:24:38.261Z,30.00
2018-06-09T15:27:06.499Z,29.70
2018-06-09T15:29:34.849Z,29.50
2018-06-09T15:32:03.457Z,29.40
2018-06-09T15:34:31.746Z,29.20
2018-06-09T15:36:59.866Z,29.40
2018-06-09T15:39:28.007Z,29.60
2018-06-09T15:41:56.371Z,29.60
2018-06-09T15:44:24.619Z,30.20
2018-06-09T15:46:52.828Z,30.20
2018-06-09T15:49:21.060Z,29.80
2018-06-09T15:51:49.229Z,29.60
2018-06-09T15:54:17.620Z,29.40
2018-06-09T15:56:45.678Z,29.30
2018-06-09T15:59:13.754Z,29.50
2018-06-09T16:04:09.663Z,28.80
2018-06-09T16:06:37.748Z,28.80
2018-06-09T16:09:07.578Z,29.60
2018-06-09T16:11:35.730Z,29.70
2018-06-09T16:14:03.814Z,29.70
2018-06-09T16:16:31.873Z,30.00
2018-06-09T16:19:00.061Z,29.90
2018-06-09T16:21:28.178Z,29.80
2018-06-09T16:23:56.327Z,30.00
2018-06-09T16:26:24.378Z,30.40
2018-06-09T16:28:52.443Z,30.50
2018-06-09T16:33:48.474Z,31.20
2018-06-09T16:36:16.687Z,30.80
2018-06-09T16:38:44.738Z,30.00
2018-06-09T16:41:12.998Z,30.00
2018-06-09T16:43:41.069Z,29.40
2018-06-09T16:46:09.330Z,29.30
2018-06-09T16:48:37.566Z,28.50
2018-06-09T16:51:05.720Z,28.40
2018-06-09T16:53:33.742Z,28.10
2018-06-09T16:56:01.796Z,28.10
2018-06-09T16:58:30.621Z,28.30
2018-06-09T17:00:58.675Z,28.30
2018-06-09T17:03:26.756Z,28.30
2018-06-09T17:05:54.825Z,28.50
2018-06-09T17:08:22.934Z,28.50
2018-06-09T17:10:51.042Z,28.40
2018-06-09T17:13:19.282Z,28.60
2018-06-09T17:15:47.313Z,28.20
2018-06-09T17:18:15.403Z,28.10
2018-06-09T17:23:11.382Z,27.90
2018-06-09T17:25:39.530Z,28.00
2018-06-09T17:28:07.589Z,27.90
2018-06-09T17:30:35.638Z,27.50
2018-06-09T17:33:03.818Z,27.40
2018-06-09T17:37:59.989Z,27.00
2018-06-09T17:40:28.074Z,27.30
2018-06-09T17:42:56.437Z,27.10
2018-06-09T17:45:24.518Z,27.00
2018-06-09T17:47:52.582Z,27.00
2018-06-09T17:50:20.857Z,26.70
2018-06-09T17:52:48.921Z,26.60
2018-06-09T17:55:16.982Z,26.50
2018-06-09T17:57:45.060Z,26.50
2018-06-09T18:00:13.242Z,26.30
2018-06-09T18:02:41.350Z,26.20
2018-06-09T18:05:09.429Z,26.20
2018-06-09T18:07:37.761Z,26.30
2018-06-09T18:10:05.835Z,26.10
2018-06-09T18:12:33.885Z,26.20
2018-06-09T18:15:01.935Z,26.20
2018-06-09T18:17:30.069Z,26.10
2018-06-09T18:19:58.138Z,26.10
2018-06-09T18:22:26.192Z,26.60
2018-06-09T18:24:54.243Z,26.70
2018-06-09T18:29:50.133Z,26.10
2018-06-09T18:32:18.237Z,25.70
2018-06-09T18:34:46.330Z,25.60
2018-06-09T18:37:14.385Z,25.60
2018-06-09T18:39:42.449Z,25.60
2018-06-09T18:42:10.633Z,25.70
2018-06-09T18:44:38.690Z,25.70
2018-06-09T18:47:06.738Z,25.30
2018-06-09T18:49:34.836Z,25.50
2018-06-09T18:52:02.890Z,25.40
2018-06-09T18:54:31.167Z,25.30
2018-06-09T18:56:59.221Z,25.10
2018-06-09T18:59:27.304Z,25.30
2018-06-09T19:01:55.351Z,25.20
2018-06-09T19:04:23.397Z,25.00
2018-06-09T19:06:51.446Z,24.90
2018-06-09T19:09:19.513Z,24.90
2018-06-09T19:14:15.448Z,25.00
2018-06-09T19:16:43.492Z,24.90
2018-06-09T19:19:11.549Z,24.90
2018-06-09T19:21:39.635Z,24.90
2018-06-09T19:24:07.730Z,24.80
2018-06-09T19:26:35.805Z,24.50
2018-06-09T19:29:03.867Z,24.50
2018-06-09T19:31:31.981Z,24.20
2018-06-09T19:36:28.117Z,24.20
2018-06-09T19:38:56.687Z,24.30
2018-06-09T19:41:24.748Z,24.40
2018-06-09T19:43:53.037Z,24.20
2018-06-09T19:46:21.095Z,24.20
2018-06-09T19:48:49.147Z,24.20
2018-06-09T19:51:17.209Z,24.20
2018-06-09T19:53:46.169Z,24.20
2018-06-09T19:56:14.326Z,24.10
2018-06-09T20:01:10.425Z,23.90
2018-06-09T20:03:38.478Z,23.90
2018-06-09T20:08:34.428Z,23.80
2018-06-09T20:11:02.631Z,23.90
2018-06-09T20:13:30.694Z,23.90
2018-06-09T20:15:58.790Z,23.70
2018-06-09T20:18:26.892Z,23.70
2018-06-09T20:20:54.954Z,23.70
2018-06-09T20:23:23.073Z,23.50
2018-06-09T20:25:51.176Z,23.60
2018-06-09T20:28:19.298Z,23.60
2018-06-09T20:30:47.367Z,23.50
2018-06-09T20:33:15.461Z,23.60
2018-06-09T20:38:11.470Z,23.60
2018-06-09T20:40:39.546Z,23.70
2018-06-09T20:43:07.721Z,23.60
2018-06-09T20:45:35.764Z,23.60
2018-06-09T20:48:04.609Z,23.50
2018-06-09T20:50:33.569Z,23.50
2018-06-09T20:53:01.621Z,23.50
2018-06-09T20:55:29.697Z,23.50
2018-06-09T20:57:57.771Z,23.50
2018-06-09T21:00:25.815Z,23.40
2018-06-09T21:02:54.003Z,23.30
2018-06-09T21:07:56.521Z,23.30
2018-06-09T21:10:24.609Z,23.20
2018-06-09T21:12:52.653Z,23.10
2018-06-09T21:15:20.722Z,23.20
2018-06-09T21:17:48.771Z,23.20
2018-06-09T21:22:44.910Z,23.30
2018-06-09T21:25:13.861Z,23.20
2018-06-09T21:27:47.237Z,23.30
2018-06-09T21:30:16.453Z,23.30
2018-06-09T21:32:47.165Z,23.30
2018-06-09T21:35:32.157Z,23.30
2018-06-09T21:38:05.653Z,23.20
2018-06-09T21:40:39.094Z,23.00
2018-06-09T21:43:12.766Z,23.00
2018-06-09T21:45:46.193Z,23.10
2018-06-09T21:48:14.294Z,23.10
2018-06-09T21:50:42.366Z,23.10
2018-06-09T21:55:38.566Z,23.10
2018-06-09T21:58:06.617Z,23.10
2018-06-09T22:00:34.688Z,23.10
2018-06-09T22:03:02.718Z,23.00
2018-06-09T22:05:30.818Z,22.90
2018-06-09T22:07:58.908Z,22.90
2018-06-09T22:10:26.973Z,22.90
2018-06-09T22:12:55.034Z,22.80
2018-06-09T22:15:23.094Z,22.80
2018-06-09T22:17:51.186Z,22.50
2018-06-09T22:22:47.446Z,22.40
2018-06-09T22:25:19.754Z,22.40
2018-06-09T22:27:47.798Z,22.50
2018-06-09T22:30:15.881Z,22.60
2018-06-09T22:32:43.974Z,22.60
2018-06-09T22:35:12.158Z,22.70
2018-06-09T22:37:40.259Z,22.60
2018-06-09T22:40:08.362Z,22.50
2018-06-09T22:42:36.402Z,22.40
2018-06-09T22:45:04.482Z,22.50
2018-06-09T22:47:32.519Z,22.50
2018-06-09T22:50:00.618Z,22.60
2018-06-09T22:52:28.855Z,22.30
2018-06-09T22:57:24.790Z,22.40
2018-06-09T22:59:52.837Z,22.40
2018-06-09T23:02:20.891Z,22.40
2018-06-09T23:04:48.962Z,22.40
2018-06-09T23:07:17.026Z,22.30
2018-06-09T23:09:45.080Z,22.20
2018-06-09T23:12:13.309Z,22.20
2018-06-09T23:14:41.367Z,22.20
2018-06-09T23:17:09.434Z,22.10
2018-06-09T23:19:37.520Z,22.10
2018-06-09T23:22:05.943Z,22.20
2018-06-09T23:27:02.186Z,22.30
2018-06-09T23:29:30.463Z,22.40
2018-06-09T23:31:58.528Z,22.40
2018-06-09T23:34:26.572Z,22.30
2018-06-09T23:39:23.110Z,22.10
2018-06-09T23:41:51.181Z,21.90
2018-06-09T23:44:19.248Z,22.10
2018-06-09T23:49:15.493Z,22.00
2018-06-09T23:51:43.545Z,21.90
2018-06-09T23:54:11.626Z,21.80
2018-06-09T23:56:39.698Z,21.80
2018-06-09T23:59:07.802Z,21.60
